createdAt,value
2022-11-29T00:02:59.582Z,95.44
2022-11-29T00:08:01.442Z,95.41
2022-11-29T00:13:03.280Z,95.31
2022-11-29T00:18:06.556Z,95.37
2022-11-29T00:23:08.373Z,95.58
2022-11-29T00:28:10.180Z,95.55
2022-11-29T00:33:11.828Z,95.42
2022-11-29T00:38:13.522Z,95.01
2022-11-29T00:43:15.194Z,95.41
2022-11-29T00:48:17.171Z,95.12
2022-11-29T00:53:19.031Z,95.21
2022-11-29T00:58:21.361Z,95.17
2022-11-29T01:03:23.988Z,94.79
2022-11-29T01:08:25.638Z,95.36
2022-11-29T01:13:27.349Z,95.06
2022-11-29T01:18:30.452Z,95.31
2022-11-29T01:23:32.535Z,95.47
2022-11-29T01:28:37.872Z,95.35
2022-11-29T01:33:40.269Z,95.46
2022-11-29T01:38:45.041Z,95.31
2022-11-29T01:43:58.868Z,95.00
2022-11-29T01:49:07.509Z,95.30
2022-11-29T01:54:10.942Z,95.25
2022-11-29T01:59:17.040Z,95.57
2022-11-29T02:04:25.594Z,95.34
2022-11-29T02:09:27.493Z,95.29
2022-11-29T02:14:39.132Z,95.38
2022-11-29T02:20:18.868Z,95.63
2022-11-29T02:25:28.132Z,95.66
2022-11-29T02:31:03.181Z,95.66
2022-11-29T02:36:14.185Z,95.46
2022-11-29T02:41:46.005Z,95.85
2022-11-29T02:47:15.814Z,95.66
2022-11-29T02:52:37.758Z,95.77
2022-11-29T02:57:50.063Z,95.52
2022-11-29T03:02:51.889Z,95.74
2022-11-29T03:08:15.478Z,95.66
2022-11-29T03:13:25.224Z,95.62
2022-11-29T03:18:38.646Z,96.01
2022-11-29T03:23:45.801Z,96.28
2022-11-29T03:29:01.166Z,96.13
2022-11-29T03:34:45.090Z,96.51
2022-11-29T03:39:57.399Z,96.32
2022-11-29T03:45:07.869Z,96.54
2022-11-29T03:50:16.484Z,96.55
2022-11-29T03:56:04.416Z,96.86
2022-11-29T04:01:20.877Z,96.66
2022-11-29T04:06:46.312Z,96.91
2022-11-29T04:11:58.760Z,96.84
2022-11-29T04:17:25.377Z,96.98
2022-11-29T04:22:43.326Z,97.04
2022-11-29T04:28:27.890Z,97.02
2022-11-29T04:33:38.577Z,96.66
2022-11-29T04:38:53.574Z,96.67
2022-11-29T04:44:20.143Z,96.72
2022-11-29T04:49:33.954Z,97.05
2022-11-29T04:54:59.055Z,96.92
2022-11-29T05:00:10.677Z,96.73
2022-11-29T05:05:27.646Z,96.86
2022-11-29T05:10:59.678Z,96.85
2022-11-29T05:16:28.826Z,96.43
2022-11-29T05:21:55.228Z,96.72
2022-11-29T05:27:29.355Z,96.65
2022-11-29T05:32:57.789Z,96.89
2022-11-29T05:38:15.169Z,97.41
2022-11-29T05:43:22.650Z,97.09
2022-11-29T05:48:36.611Z,97.20
2022-11-29T05:53:51.486Z,97.14
2022-11-29T05:59:05.632Z,97.05
2022-11-29T06:04:17.758Z,97.37
2022-11-29T06:09:33.838Z,96.78
2022-11-29T06:14:57.209Z,97.04
2022-11-29T06:20:13.025Z,97.57
2022-11-29T06:25:30.749Z,96.55
2022-11-29T06:31:04.520Z,94.74
2022-11-29T06:36:12.596Z,93.83
2022-11-29T06:41:21.641Z,93.06
2022-11-29T06:46:35.672Z,92.38
2022-11-29T06:51:48.908Z,93.06
2022-11-29T06:57:05.830Z,93.34
2022-11-29T07:02:10.756Z,94.25
2022-11-29T07:07:15.615Z,94.60
2022-11-29T07:12:18.319Z,94.95
2022-11-29T07:17:30.915Z,95.45
2022-11-29T07:22:44.266Z,95.58
2022-11-29T07:28:16.146Z,95.77
2022-11-29T07:33:53.774Z,95.85
2022-11-29T07:39:19.192Z,96.51
2022-11-29T07:44:44.818Z,96.31
2022-11-29T07:49:46.757Z,96.79
2022-11-29T07:54:48.637Z,96.88
2022-11-29T07:59:50.259Z,96.82
2022-11-29T08:04:52.048Z,96.82
2022-11-29T08:09:53.878Z,96.66
2022-11-29T08:14:55.512Z,97.06
2022-11-29T08:20:00.021Z,97.12
2022-11-29T08:25:07.124Z,97.36
2022-11-29T08:30:09.166Z,97.15
2022-11-29T08:35:10.893Z,97.17
2022-11-29T08:40:13.853Z,97.26
2022-11-29T08:45:15.993Z,97.48
2022-11-29T08:50:18.202Z,97.53
2022-11-29T08:55:23.145Z,97.48
2022-11-29T09:00:25.047Z,97.71
2022-11-29T09:05:26.740Z,97.88
2022-11-29T09:10:28.433Z,97.86
2022-11-29T09:15:30.104Z,97.91
2022-11-29T09:20:32.767Z,98.15
2022-11-29T09:25:34.573Z,98.04
2022-11-29T09:30:37.998Z,98.28
2022-11-29T09:35:39.741Z,97.95
2022-11-29T09:40:51.799Z,98.21
2022-11-29T09:46:23.315Z,98.41
2022-11-29T09:51:52.848Z,98.05
2022-11-29T09:56:56.745Z,98.11
2022-11-29T10:02:08.937Z,98.11
2022-11-29T10:07:22.143Z,98.22
2022-11-29T10:12:30.513Z,98.30
2022-11-29T10:18:22.049Z,98.20
2022-11-29T10:23:31.187Z,98.60
2022-11-29T10:28:34.858Z,98.20
2022-11-29T10:33:41.176Z,98.29
2022-11-29T10:38:46.019Z,98.28
2022-11-29T10:43:50.373Z,98.71
2022-11-29T10:48:52.938Z,99.01
2022-11-29T10:53:56.155Z,98.74
2022-11-29T10:59:05.207Z,98.78
2022-11-29T11:04:14.054Z,98.65
2022-11-29T11:09:34.410Z,98.46
2022-11-29T11:14:38.684Z,98.21
2022-11-29T11:19:40.508Z,98.67
2022-11-29T11:24:44.584Z,98.57
2022-11-29T11:29:46.549Z,98.97
2022-11-29T11:34:56.130Z,99.17
2022-11-29T11:40:00.972Z,98.90
2022-11-29T11:45:25.863Z,99.04
2022-11-29T11:50:31.395Z,98.74
2022-11-29T11:55:43.174Z,98.83
2022-11-29T12:01:05.700Z,99.00
2022-11-29T12:06:28.736Z,98.86
2022-11-29T12:11:42.180Z,99.08
2022-11-29T12:16:47.201Z,98.73
2022-11-29T12:21:55.814Z,99.04
2022-11-29T12:27:04.928Z,98.99
2022-11-29T12:32:17.283Z,99.27
2022-11-29T12:37:40.358Z,99.09
2022-11-29T12:42:59.505Z,99.28
2022-11-29T12:48:20.048Z,99.23
2022-11-29T12:53:27.069Z,99.07
2022-11-29T12:58:51.866Z,99.19
2022-11-29T13:04:09.407Z,99.03
2022-11-29T13:09:17.058Z,99.11
2022-11-29T13:14:42.721Z,98.87
2022-11-29T13:19:53.409Z,99.13
2022-11-29T13:25:01.070Z,99.26
2022-11-29T13:30:04.813Z,99.40
2022-11-29T13:35:19.995Z,99.18
2022-11-29T13:40:30.279Z,99.33
2022-11-29T13:45:42.139Z,99.70
2022-11-29T13:50:45.180Z,99.48
2022-11-29T13:55:48.685Z,98.83
2022-11-29T14:00:52.064Z,98.19
2022-11-29T14:06:14.595Z,98.14
2022-11-29T14:11:16.269Z,98.00
2022-11-29T14:16:36.310Z,97.82
2022-11-29T14:22:02.946Z,98.07
2022-11-29T14:27:07.645Z,97.60
2022-11-29T14:32:22.536Z,97.72
2022-11-29T14:37:31.769Z,97.19
2022-11-29T14:42:33.595Z,97.39
2022-11-29T14:47:48.660Z,97.53
2022-11-29T14:52:51.511Z,97.91
2022-11-29T14:57:54.771Z,97.89
2022-11-29T15:03:01.642Z,98.04
2022-11-29T15:08:17.393Z,98.46
2022-11-29T15:13:28.450Z,98.19
2022-11-29T15:19:03.054Z,98.41
2022-11-29T15:24:14.192Z,98.41
2022-11-29T15:29:19.442Z,98.39
2022-11-29T15:34:38.075Z,98.61
2022-11-29T15:39:40.143Z,98.55
2022-11-29T15:44:46.066Z,98.52
2022-11-29T15:49:48.877Z,98.65
2022-11-29T15:54:56.479Z,98.78
2022-11-29T16:00:02.219Z,98.63
2022-11-29T16:05:24.873Z,98.50
2022-11-29T16:10:36.230Z,98.52
2022-11-29T16:15:39.468Z,98.54
2022-11-29T16:20:42.903Z,98.70
2022-11-29T16:25:48.780Z,98.55
2022-11-29T16:30:50.532Z,98.73
2022-11-29T16:36:06.552Z,98.83
2022-11-29T16:41:23.048Z,98.64
2022-11-29T16:46:27.376Z,98.75
2022-11-29T16:51:48.141Z,98.41
2022-11-29T16:56:52.119Z,98.56
2022-11-29T17:01:54.084Z,98.43
2022-11-29T17:06:56.666Z,98.62
2022-11-29T17:12:01.500Z,98.33
2022-11-29T17:17:03.400Z,98.53
2022-11-29T17:22:05.248Z,98.16
2022-11-29T17:27:06.990Z,98.33
2022-11-29T17:32:08.779Z,98.48
2022-11-29T17:37:10.659Z,98.35
2022-11-29T17:42:12.563Z,98.22
2022-11-29T17:47:14.421Z,97.78
2022-11-29T17:52:16.224Z,97.88
2022-11-29T17:57:18.292Z,97.82
2022-11-29T18:02:20.228Z,97.94
2022-11-29T18:07:22.213Z,97.33
2022-11-29T18:12:24.314Z,97.29
2022-11-29T18:17:26.004Z,97.00
2022-11-29T18:22:27.664Z,96.91
2022-11-29T18:27:30.584Z,96.98
2022-11-29T18:32:33.162Z,96.61
2022-11-29T18:38:12.954Z,96.53
2022-11-29T18:42:56.517Z,96.64
2022-11-29T18:47:58.598Z,96.64
2022-11-29T18:53:00.376Z,96.90
2022-11-29T18:58:02.360Z,97.21
2022-11-29T19:03:04.165Z,96.97
2022-11-29T19:08:05.863Z,97.17
2022-11-29T19:13:07.876Z,97.14
2022-11-29T19:18:09.619Z,96.84
2022-11-29T19:23:11.457Z,96.72
2022-11-29T19:28:14.361Z,96.52
2022-11-29T19:33:16.303Z,96.77
2022-11-29T19:38:18.171Z,96.86
2022-11-29T19:43:20.179Z,97.05
2022-11-29T19:48:21.942Z,97.28
2022-11-29T19:53:23.642Z,96.93
2022-11-29T19:58:25.395Z,97.06
2022-11-29T20:03:29.787Z,96.97
2022-11-29T20:08:32.377Z,96.99
2022-11-29T20:13:34.109Z,96.99
2022-11-29T20:18:39.219Z,97.29
2022-11-29T20:23:42.193Z,97.22
2022-11-29T20:28:44.743Z,96.93
2022-11-29T20:33:48.262Z,97.11
2022-11-29T20:38:55.926Z,97.36
2022-11-29T20:44:01.585Z,97.27
2022-11-29T20:49:06.695Z,96.86
2022-11-29T20:54:11.070Z,96.94
2022-11-29T20:59:12.807Z,96.68
2022-11-29T21:04:17.717Z,96.34
2022-11-29T21:09:21.872Z,96.02
2022-11-29T21:14:24.358Z,95.84
2022-11-29T21:19:26.860Z,95.39
2022-11-29T21:25:02.563Z,95.43
2022-11-29T21:30:06.211Z,95.32
2022-11-29T21:35:08.098Z,95.27
2022-11-29T21:40:12.196Z,95.15
2022-11-29T21:45:15.778Z,95.05
2022-11-29T21:50:17.928Z,94.42
2022-11-29T21:55:19.825Z,94.74
2022-11-29T22:00:21.712Z,94.48
2022-11-29T22:05:23.368Z,94.74
2022-11-29T22:10:25.094Z,94.70
2022-11-29T22:15:27.378Z,94.31
2022-11-29T22:20:29.112Z,94.52
2022-11-29T22:25:30.840Z,94.36
2022-11-29T22:30:32.623Z,94.49
2022-11-29T22:35:34.304Z,93.91
2022-11-29T22:40:36.078Z,94.18
2022-11-29T22:45:37.797Z,93.75
2022-11-29T22:50:39.523Z,94.24
2022-11-29T22:55:41.220Z,94.35
2022-11-29T23:00:44.023Z,94.33
2022-11-29T23:05:45.884Z,94.05
2022-11-29T23:10:58.122Z,93.90
2022-11-29T23:16:01.193Z,93.93
2022-11-29T23:21:21.407Z,94.15
2022-11-29T23:26:29.411Z,94.07
2022-11-29T23:31:31.662Z,94.25
2022-11-29T23:36:33.647Z,93.88
2022-11-29T23:41:38.537Z,94.10
2022-11-29T23:46:40.314Z,94.46
2022-11-29T23:51:41.953Z,94.18
2022-11-29T23:56:43.574Z,94.26
